Time;durP1;ratioP1;P1;durP2;ratioP2;P2;SDS_P1;SDS_P2;PMS_P1;PMS_P2;Temp;Humidity;BMP_temperature;BMP_pressure;BME280_temperature;BME280_humidity;BME280_pressure;Samples;Min_cycle;Max_cycle;Signal;HPM_P1;HPM_P2
2022/11/12 00:01:14;;;;;;;1999.90;999.90;;;;;;;4.53;100.00;95752.56;5013479;28;20226;-59
2022/11/12 00:03:39;;;;;;;1999.90;999.90;;;;;;;4.53;100.00;95749.09;5013957;28;20199;-57
2022/11/12 00:06:04;;;;;;;1999.90;999.90;;;;;;;4.49;100.00;95748.22;5013567;28;20180;-57
2022/11/12 00:08:30;;;;;;;1999.90;999.90;;;;;;;4.45;100.00;95763.59;5013881;28;20177;-58
2022/11/12 00:10:55;;;;;;;1999.90;999.90;;;;;;;4.44;100.00;95762.81;5014084;28;20179;-59
2022/11/12 00:13:27;;;;;;;1999.90;999.90;;;;;;;4.40;100.00;95769.28;5013466;28;20198;-57
2022/11/12 00:15:57;;;;;;;1999.90;999.90;;;;;;;4.35;100.00;95778.47;5013759;28;20180;-61
2022/11/12 00:18:22;;;;;;;1999.90;999.90;;;;;;;4.31;100.00;95787.63;5013677;28;20318;-60
2022/11/12 00:20:47;;;;;;;1999.90;999.90;;;;;;;4.28;100.00;95782.91;5013454;28;20191;-61
2022/11/12 00:23:13;;;;;;;1999.90;999.90;;;;;;;4.26;100.00;95790.59;5013894;28;20180;-61
2022/11/12 00:25:51;;;;;;;1999.90;999.90;;;;;;;4.23;100.00;95802.91;5013460;28;20535;-61
2022/11/12 00:28:24;;;;;;;1999.90;999.90;;;;;;;4.19;100.00;95802.03;5013325;28;20185;-61
2022/11/12 00:30:49;;;;;;;1999.90;999.90;;;;;;;4.16;100.00;95802.75;5013426;28;20176;-61
2022/11/12 00:33:14;;;;;;;1999.90;999.90;;;;;;;4.15;100.00;95811.22;5013406;28;20206;-61
2022/11/12 00:35:40;;;;;;;1999.90;999.90;;;;;;;4.14;100.00;95799.59;5013093;28;20182;-58
2022/11/12 00:38:05;;;;;;;1999.90;999.90;;;;;;;4.12;100.00;95811.91;5013285;28;20171;-59
2022/11/12 00:40:30;;;;;;;1999.90;999.90;;;;;;;4.09;100.00;95812.59;5013689;28;20529;-58
2022/11/12 00:42:56;;;;;;;1999.90;999.90;;;;;;;4.12;100.00;95809.19;5013719;28;20198;-58
2022/11/12 00:45:22;;;;;;;1999.90;999.90;;;;;;;4.14;100.00;95817.72;5017395;28;20217;-58
2022/11/12 00:47:47;;;;;;;1999.90;999.90;;;;;;;4.16;100.00;95818.16;5017186;28;20182;-59
2022/11/12 00:50:14;;;;;;;1999.90;999.90;;;;;;;4.16;100.00;95812.75;5016663;28;20171;-58
2022/11/12 00:52:40;;;;;;;1999.90;999.90;;;;;;;4.23;100.00;95812.94;5017204;28;20270;-56
2022/11/12 00:55:05;;;;;;;1999.90;999.90;;;;;;;4.29;100.00;95809.59;5016708;28;20760;-61
2022/11/12 00:57:31;;;;;;;1999.90;999.90;;;;;;;4.32;100.00;95800.00;5016524;28;20175;-57
2022/11/12 00:59:56;;;;;;;1999.90;999.90;;;;;;;4.39;100.00;95789.34;5016216;28;20224;-58
2022/11/12 01:02:21;;;;;;;1999.90;999.90;;;;;;;4.41;100.00;95787.06;5016527;28;20229;-57
2022/11/12 01:04:47;;;;;;;1999.90;999.90;;;;;;;4.45;100.00;95782.53;5016035;28;20191;-58
2022/11/12 01:07:14;;;;;;;1999.90;999.90;;;;;;;4.48;100.00;95777.19;5016714;28;20179;-56
2022/11/12 01:09:40;;;;;;;1999.90;999.90;;;;;;;4.51;100.00;95775.72;5016500;28;20203;-58
2022/11/12 01:12:06;;;;;;;1999.90;999.90;;;;;;;4.52;100.00;95771.84;5016846;28;20180;-61
2022/11/12 01:14:31;;;;;;;1999.90;999.90;;;;;;;4.52;100.00;95771.84;5016862;28;20238;-61
2022/11/12 01:16:57;;;;;;;1999.90;999.90;;;;;;;4.55;100.00;95763.81;5016234;28;20186;-60
2022/11/12 01:19:22;;;;;;;1999.90;999.90;;;;;;;4.61;100.00;95762.41;5016421;28;20292;-61
2022/11/12 01:21:47;;;;;;;1999.90;999.90;;;;;;;4.65;100.00;95743.53;5015915;28;20179;-60
2022/11/12 01:24:13;;;;;;;1999.90;999.90;;;;;;;4.68;100.00;95749.03;5016131;28;20257;-60
2022/11/12 01:26:38;;;;;;;1999.90;999.90;;;;;;;4.73;100.00;95746.00;5016147;28;20176;-61
2022/11/12 01:29:04;;;;;;;1999.90;999.90;;;;;;;4.74;100.00;95752.97;5016209;28;20174;-61
2022/11/12 01:31:35;;;;;;;1999.90;999.90;;;;;;;4.74;100.00;95746.81;5016554;28;20178;-56
2022/11/12 01:34:04;;;;;;;1999.90;999.90;;;;;;;4.75;100.00;95751.06;5017253;28;20278;-58
2022/11/12 01:36:34;;;;;;;1999.90;999.90;;;;;;;4.79;100.00;95741.09;5016734;28;20198;-58
2022/11/12 01:38:59;;;;;;;1999.90;999.90;;;;;;;4.82;100.00;95753.91;5016282;28;20194;-60
2022/11/12 01:41:27;;;;;;;1999.90;999.90;;;;;;;4.84;100.00;95740.81;5016067;28;20545;-59
2022/11/12 01:44:22;;;;;;;1999.90;999.90;;;;;;;4.86;100.00;95749.34;5016026;28;20171;-58
2022/11/12 01:47:05;;;;;;;1999.90;999.90;;;;;;;4.86;100.00;95755.56;5015496;28;20175;-58
2022/11/12 01:50:09;;;;;;;1999.90;999.90;;;;;;;4.85;100.00;95764.78;5016176;28;20263;-57
2022/11/12 01:52:41;;;;;;;1999.90;999.90;;;;;;;4.87;100.00;95772.56;5016348;28;20182;-60
2022/11/12 01:55:12;;;;;;;1999.90;999.90;;;;;;;4.86;100.00;95779.09;5015348;28;20275;-60
2022/11/12 01:57:44;;;;;;;1999.90;999.90;;;;;;;4.85;100.00;95775.59;5015947;28;20172;-60
2022/11/12 02:00:12;;;;;;;1999.90;999.90;;;;;;;4.90;100.00;95782.66;5015360;28;20223;-61
2022/11/12 02:02:38;;;;;;;1999.90;999.90;;;;;;;4.90;100.00;95782.66;5016451;28;20211;-60
2022/11/12 02:05:07;;;;;;;1999.90;999.90;;;;;;;4.92;100.00;95785.81;5015364;28;20217;-60
2022/11/12 02:07:35;;;;;;;1999.90;999.90;;;;;;;4.94;100.00;95787.00;5015789;28;20207;-49
2022/11/12 02:10:02;;;;;;;1999.90;999.90;;;;;;;4.95;100.00;95791.28;5041867;23;20238;-60
2022/11/12 02:15:11;;;;;;;1999.90;999.90;;;;;;;4.96;100.00;95802.91;5036226;28;20540;-58
2022/11/12 02:17:38;;;;;;;1999.90;999.90;;;;;;;4.98;100.00;95806.00;5018305;28;20180;-58
2022/11/12 02:20:04;;;;;;;1999.90;999.90;;;;;;;4.97;100.00;95809.88;5018216;28;20186;-59
2022/11/12 02:22:29;;;;;;;1999.90;999.90;;;;;;;4.97;100.00;95815.28;5018581;28;20172;-58
2022/11/12 02:24:54;;;;;;;1999.90;999.90;;;;;;;4.97;100.00;95821.47;5034723;28;20240;-58
2022/11/12 02:27:21;;;;;;;1999.90;999.90;;;;;;;4.97;100.00;95829.59;5018508;28;20186;-58
2022/11/12 02:29:46;;;;;;;1999.90;999.90;;;;;;;4.99;100.00;95829.25;5018158;28;20188;-64
2022/11/12 02:32:12;;;;;;;1999.90;999.90;;;;;;;4.99;100.00;95830.00;5018132;28;20174;-64
2022/11/12 02:34:38;;;;;;;1999.90;999.90;;;;;;;5.00;100.00;95828.88;5018444;28;20227;-64
2022/11/12 02:37:04;;;;;;;1999.90;999.90;;;;;;;5.03;100.00;95835.50;5017843;28;20172;-64
2022/11/12 02:39:29;;;;;;;1999.90;999.90;;;;;;;5.00;100.00;95845.13;5018501;28;20176;-64
2022/11/12 02:41:55;;;;;;;1999.90;999.90;;;;;;;5.00;100.00;95841.63;5018595;28;20174;-64
2022/11/12 02:44:20;;;;;;;1999.90;999.90;;;;;;;5.01;100.00;95848.59;5018150;28;20176;-58
2022/11/12 02:46:45;;;;;;;1999.90;999.90;;;;;;;5.03;100.00;95843.63;5018333;28;20213;-64
2022/11/12 02:49:11;;;;;;;1999.90;999.90;;;;;;;5.03;100.00;95852.50;5018309;28;20175;-64
2022/11/12 02:51:36;;;;;;;1999.90;999.90;;;;;;;5.01;100.00;95862.13;5018237;28;20179;-64
2022/11/12 02:54:01;;;;;;;1999.90;999.90;;;;;;;4.98;100.00;95870.94;5017324;28;20288;-64
2022/11/12 02:56:27;;;;;;;1999.90;999.90;;;;;;;4.92;100.00;95877.81;5017676;28;20171;-64
2022/11/12 02:58:52;;;;;;;1999.90;999.90;;;;;;;4.94;100.00;95875.50;5018091;28;20175;-64
2022/11/12 03:01:17;;;;;;;1999.90;999.90;;;;;;;4.95;100.00;95871.69;5017670;28;20273;-63
2022/11/12 03:03:43;;;;;;;1999.90;999.90;;;;;;;4.90;100.00;95885.47;5017204;28;20194;-57
2022/11/12 03:06:08;;;;;;;1999.90;999.90;;;;;;;4.85;100.00;95883.06;5017363;28;20656;-58
2022/11/12 03:08:33;;;;;;;1999.90;999.90;;;;;;;4.82;100.00;95883.75;5017396;28;20651;-58
2022/11/12 03:11:05;;;;;;;1999.90;999.90;;;;;;;4.80;100.00;95894.94;5014117;28;20219;-58
2022/11/12 03:13:30;;;;;;;1999.90;999.90;;;;;;;4.77;100.00;95901.03;5014061;28;20233;-58
2022/11/12 03:15:59;;;;;;;1999.90;999.90;;;;;;;4.71;100.00;95915.19;5014904;28;20167;-58
2022/11/12 03:18:25;;;;;;;1999.90;999.90;;;;;;;4.66;100.00;95920.91;5013931;28;20172;-58
2022/11/12 03:20:51;;;;;;;1999.90;999.90;;;;;;;4.62;100.00;95918.09;5014388;28;20178;-63
2022/11/12 03:23:16;;;;;;;1999.90;999.90;;;;;;;4.54;100.00;95926.38;5013823;28;20176;-63
2022/11/12 03:25:41;;;;;;;1999.90;999.90;;;;;;;4.50;100.00;95933.63;5013872;28;20208;-63
2022/11/12 03:28:10;;;;;;;1999.90;999.90;;;;;;;4.52;100.00;95928.69;5014014;28;20172;-65
2022/11/12 03:30:38;;;;;;;1999.90;999.90;;;;;;;4.45;100.00;95933.91;5013636;28;20184;-65
2022/11/12 03:33:05;;;;;;;1999.90;999.90;;;;;;;4.41;100.00;95933.81;5014275;28;20171;-64
2022/11/12 03:35:31;;;;;;;1999.90;999.90;;;;;;;4.39;100.00;95929.91;5013895;28;20240;-64
2022/11/12 03:37:57;;;;;;;1999.90;999.90;;;;;;;4.37;100.00;95929.47;5014440;28;20556;-59
2022/11/12 03:40:23;;;;;;;1999.90;999.90;;;;;;;4.35;100.00;95920.94;5014006;28;20242;-59
2022/11/12 03:42:50;;;;;;;1999.90;999.90;;;;;;;4.32;100.00;95917.00;5013477;28;20179;-60
2022/11/12 03:45:17;;;;;;;1999.90;999.90;;;;;;;4.27;100.00;95911.88;5013860;28;20254;-60
2022/11/12 03:47:48;;;;;;;1999.90;999.90;;;;;;;4.23;100.00;95905.59;5014211;28;20266;-61
2022/11/12 03:50:16;;;;;;;1999.90;999.90;;;;;;;4.19;100.00;95903.94;5013541;28;20163;-62
2022/11/12 03:52:50;;;;;;;1999.90;999.90;;;;;;;4.12;100.00;95892.97;5014155;28;20171;-59
2022/11/12 03:55:18;;;;;;;1999.90;999.90;;;;;;;4.06;100.00;95889.75;5013859;28;20179;-59
2022/11/12 03:57:44;;;;;;;1999.90;999.90;;;;;;;4.01;100.00;95895.41;5014205;28;20182;-59
2022/11/12 04:00:10;;;;;;;1999.90;999.90;;;;;;;3.99;100.00;95894.16;5013409;28;20171;-58
2022/11/12 04:02:36;;;;;;;1999.90;999.90;;;;;;;3.95;100.00;95887.91;5013465;28;20217;-58
2022/11/12 04:10:45;;;;;;;1999.90;999.90;;;;;;;3.79;100.00;95890.59;5026793;28;20245;-58
2022/11/12 04:13:26;;;;;;;1999.90;999.90;;;;;;;3.75;100.00;95888.94;5016752;28;20250;-58
2022/11/12 04:26:21;;;;;;;1999.90;999.90;;;;;;;3.67;100.00;95865.59;5038366;28;20170;-58
2022/11/12 04:26:58;;;;;;;1999.90;999.90;;;;;;;3.66;100.00;95864.00;5038361;28;20252;-59
2022/11/12 04:32:08;;;;;;;1999.90;999.90;;;;;;;3.66;100.00;95855.91;5038236;28;20248;-59
2022/11/12 04:34:34;;;;;;;1999.90;999.90;;;;;;;3.63;100.00;95848.50;5019965;28;20681;-62
2022/11/12 04:37:02;;;;;;;1999.90;999.90;;;;;;;3.64;100.00;95850.09;5020303;28;20530;-65
2022/11/12 04:39:27;;;;;;;1999.90;999.90;;;;;;;3.68;100.00;95834.75;5019941;28;20185;-65
2022/11/12 04:47:42;;;;;;;1999.90;999.90;;;;;;;3.68;100.00;95824.72;4938801;29;20208;-64
2022/11/12 04:50:16;;;;;;;1999.90;999.90;;;;;;;3.68;100.00;95824.72;4938448;29;20355;-64
2022/11/12 04:52:42;;;;;;;1999.90;999.90;;;;;;;3.70;100.00;95821.69;4974168;28;20260;-58
2022/11/12 04:55:08;;;;;;;1999.90;999.90;;;;;;;3.69;100.00;95820.13;5020021;28;20569;-60
2022/11/12 04:57:33;;;;;;;1999.90;999.90;;;;;;;3.70;100.00;95816.28;5019703;28;20266;-59
2022/11/12 04:59:59;;;;;;;1999.90;999.90;;;;;;;3.65;100.00;95830.06;5019917;28;20257;-59
2022/11/12 05:02:24;;;;;;;1999.90;999.90;;;;;;;3.62;100.00;95825.34;5020095;28;20178;-60
2022/11/12 05:04:50;;;;;;;1999.90;999.90;;;;;;;3.62;100.00;95831.53;5019732;28;20194;-59
2022/11/12 05:07:16;;;;;;;1999.90;999.90;;;;;;;3.63;100.00;95822.28;5019757;28;20178;-59
2022/11/12 05:09:42;;;;;;;1999.90;999.90;;;;;;;3.61;100.00;95829.97;5019405;28;20219;-59
2022/11/12 05:12:08;;;;;;;1999.90;999.90;;;;;;;3.63;100.00;95827.69;5020379;28;20175;-58
2022/11/12 05:14:33;;;;;;;1999.90;999.90;;;;;;;3.61;100.00;95829.19;5019571;28;20672;-63
2022/11/12 05:16:58;;;;;;;1999.90;999.90;;;;;;;3.62;100.00;95820.75;5019343;28;20194;-62
2022/11/12 05:19:24;;;;;;;1999.90;999.90;;;;;;;3.58;100.00;95828.72;5020035;28;20173;-61
2022/11/12 05:22:04;;;;;;;1999.90;999.90;;;;;;;3.61;100.00;95826.47;5019954;28;20174;-63
2022/11/12 05:24:35;;;;;;;1999.90;999.90;;;;;;;3.63;100.00;95821.50;5019623;28;20501;-61
2022/11/12 05:27:01;;;;;;;1999.90;999.90;;;;;;;3.64;100.00;95823.09;5019804;28;20171;-61
2022/11/12 05:29:27;;;;;;;1999.90;999.90;;;;;;;3.64;100.00;95823.09;5019434;28;20219;-58
2022/11/12 05:31:52;;;;;;;1999.90;999.90;;;;;;;3.66;100.00;95820.81;5019164;28;20256;-59
2022/11/12 05:34:17;;;;;;;1999.90;999.90;;;;;;;3.66;100.00;95812.72;5019152;28;20206;-59
2022/11/12 05:36:43;;;;;;;1999.90;999.90;;;;;;;3.67;100.00;95808.91;5019038;28;20173;-60
2022/11/12 05:39:08;;;;;;;1999.90;999.90;;;;;;;3.73;100.00;95804.78;5019090;28;20261;-59
2022/11/12 05:41:33;;;;;;;1999.90;999.90;;;;;;;3.71;100.00;95807.84;5019083;28;20171;-59
2022/11/12 05:43:59;;;;;;;1999.90;999.90;;;;;;;3.73;100.00;95804.78;5019549;28;20182;-59
2022/11/12 05:46:24;;;;;;;1999.90;999.90;;;;;;;3.71;100.00;95807.84;5018653;28;20182;-59
2022/11/12 05:48:50;;;;;;;1999.90;999.90;;;;;;;3.69;100.00;95804.72;5019614;28;20278;-58
2022/11/12 05:51:15;;;;;;;1999.90;999.90;;;;;;;3.71;100.00;95807.84;5018586;28;20177;-60
2022/11/12 05:53:41;;;;;;;1999.90;999.90;;;;;;;3.70;100.00;95800.88;5018782;28;20289;-60
2022/11/12 05:56:08;;;;;;;1999.90;999.90;;;;;;;3.67;100.00;95806.97;5018859;28;20190;-60
2022/11/12 05:58:36;;;;;;;1999.90;999.90;;;;;;;3.71;100.00;95809.78;5018325;28;20192;-59
2022/11/12 06:01:02;;;;;;;1999.90;999.90;;;;;;;3.69;100.00;95802.00;5018664;28;20181;-59
2022/11/12 06:03:28;;;;;;;1999.90;999.90;;;;;;;3.71;100.00;95815.16;5019061;28;20175;-60
2022/11/12 06:05:53;;;;;;;1999.90;999.90;;;;;;;3.72;100.00;95816.72;5018371;28;20185;-57
2022/11/12 06:08:19;;;;;;;1999.90;999.90;;;;;;;3.73;100.00;95819.09;5018759;28;20220;-62
2022/11/12 06:10:48;;;;;;;1999.90;999.90;;;;;;;3.76;100.00;95820.28;5018127;28;20235;-58
2022/11/12 06:13:14;;;;;;;1999.90;999.90;;;;;;;3.76;100.00;95820.28;5018372;28;20203;-58
2022/11/12 06:15:40;;;;;;;1999.90;999.90;;;;;;;3.75;100.00;95818.75;5018971;28;20531;-58
2022/11/12 06:18:05;;;;;;;1999.90;999.90;;;;;;;3.75;100.00;95818.75;5018341;28;20547;-60
2022/11/12 06:20:31;;;;;;;1999.90;999.90;;;;;;;3.76;100.00;95814.91;5018239;28;20189;-58
2022/11/12 06:22:56;;;;;;;1999.90;999.90;;;;;;;3.75;100.00;95816.81;5018754;28;20181;-58
2022/11/12 06:25:22;;;;;;;1999.90;999.90;;;;;;;3.72;100.00;95814.03;5018415;28;20171;-58
2022/11/12 06:27:47;;;;;;;1999.90;999.90;;;;;;;3.75;100.00;95821.44;5018152;28;20202;-61
2022/11/12 06:30:13;;;;;;;1999.90;999.90;;;;;;;3.77;100.00;95825.34;5018149;28;20210;-60
2022/11/12 06:32:38;;;;;;;1999.90;999.90;;;;;;;3.77;100.00;95822.66;5018768;28;20186;-60
2022/11/12 06:35:04;;;;;;;1999.90;999.90;;;;;;;3.77;100.00;95827.25;5018682;28;20285;-60
2022/11/12 06:37:29;;;;;;;1999.90;999.90;;;;;;;3.78;100.00;95823.44;5017670;28;20171;-61
2022/11/12 06:39:54;;;;;;;1999.90;999.90;;;;;;;3.81;100.00;95823.53;5017909;28;20178;-61
2022/11/12 06:42:20;;;;;;;1999.90;999.90;;;;;;;3.83;100.00;95828.56;5017237;28;20198;-59
2022/11/12 06:44:45;;;;;;;1999.90;999.90;;;;;;;3.82;100.00;95835.13;5018517;28;20182;-58
2022/11/12 06:47:10;;;;;;;1999.90;999.90;;;;;;;3.81;100.00;95828.91;5017793;28;20183;-62
2022/11/12 06:49:36;;;;;;;1999.90;999.90;;;;;;;3.84;100.00;95832.84;5017728;28;20179;-62
2022/11/12 06:52:01;;;;;;;1999.90;999.90;;;;;;;3.89;100.00;95829.88;5017559;28;20206;-65
2022/11/12 06:54:27;;;;;;;1999.90;999.90;;;;;;;3.95;100.00;95833.88;5018192;28;20241;-67
2022/11/12 06:56:52;;;;;;;1999.90;999.90;;;;;;;4.04;100.00;95827.16;5018391;28;20612;-61
2022/11/12 06:59:18;;;;;;;1999.90;999.90;;;;;;;4.12;100.00;95822.72;5017695;28;20357;-64
2022/11/12 07:01:43;;;;;;;1999.90;999.90;;;;;;;4.18;100.00;95822.09;5017530;28;20183;-58
2022/11/12 07:04:09;;;;;;;1999.90;999.90;;;;;;;4.26;100.00;95828.44;5035265;28;20190;-58
2022/11/12 07:06:35;;;;;;;1999.90;999.90;;;;;;;4.29;100.00;95833.16;5018248;28;20175;-58
2022/11/12 07:09:00;;;;;;;1999.90;999.90;;;;;;;4.38;100.00;95831.03;5017372;28;20171;-58
2022/11/12 07:11:26;;;;;;;1999.90;999.90;;;;;;;4.42;100.00;95842.69;5017248;28;20218;-58
2022/11/12 07:13:51;;;;;;;1999.90;999.90;;;;;;;4.46;100.00;95849.75;5017425;28;20244;-58
2022/11/12 07:16:17;;;;;;;1999.90;999.90;;;;;;;4.55;100.00;95863.09;5017395;28;20610;-57
2022/11/12 07:18:44;;;;;;;1999.90;999.90;;;;;;;4.57;100.00;95871.63;5017523;28;20187;-63
2022/11/12 07:21:12;;;;;;;1999.90;999.90;;;;;;;4.61;100.00;95888.69;5017837;28;20179;-59
2022/11/12 07:23:38;;;;;;;1999.90;999.90;;;;;;;4.67;100.00;95898.13;5034687;28;20621;-59
2022/11/12 07:26:06;;;;;;;1999.90;999.90;;;;;;;4.78;100.00;95902.63;5017204;28;20181;-60
2022/11/12 07:28:32;;;;;;;1999.90;999.90;;;;;;;4.86;100.00;95911.66;5017163;28;20184;-60
2022/11/12 07:31:04;;;;;;;1999.90;999.90;;;;;;;5.03;100.00;95932.94;5017082;28;20188;-60
2022/11/12 07:33:29;;;;;;;1999.90;999.90;;;;;;;5.15;100.00;95949.03;5016769;28;20301;-59
2022/11/12 07:36:00;;;;;;;1999.90;999.90;;;;;;;5.37;100.00;95991.66;5016881;28;20618;-59
2022/11/12 07:38:26;;;;;;;1999.90;999.90;;;;;;;5.52;100.00;96026.81;5017821;28;20179;-59
2022/11/12 07:40:57;;;;;;;1999.90;999.90;;;;;;;5.55;100.00;96074.06;5016948;28;20238;-62
2022/11/12 07:43:23;;;;;;;1999.90;999.90;;;;;;;5.59;100.00;96113.66;5017565;28;20614;-62
2022/11/12 07:45:48;;;;;;;1999.90;999.90;;;;;;;5.81;100.00;96131.97;5016935;28;20281;-62
2022/11/12 07:48:13;;;;;;;1999.90;999.90;;;;;;;5.91;100.00;96165.84;5017863;28;20272;-62
2022/11/12 07:50:39;;;;;;;1999.90;999.90;;;;;;;6.00;100.00;96210.59;5016631;28;20180;-62
2022/11/12 07:53:04;;;;;;;1999.90;999.90;;;;;;;6.16;100.00;96243.09;5019337;28;20188;-62
2022/11/12 07:55:29;;;;;;;1999.90;999.90;;;;;;;6.35;100.00;96279.16;5021389;28;20276;-62
2022/11/12 07:57:58;;;;;;;1999.90;999.90;;;;;;;6.74;100.00;96307.16;5021024;28;20181;-60
2022/11/12 08:00:23;;;;;;;1999.90;999.90;;;;;;;7.17;100.00;96354.97;5021331;28;20177;-59
2022/11/12 08:02:49;;;;;;;1999.90;999.90;;;;;;;7.37;100.00;96419.81;5021305;28;20208;-60
2022/11/12 08:05:14;;;;;;;1999.90;999.90;;;;;;;7.41;100.00;96480.44;5020474;28;20197;-58
2022/11/12 08:07:39;;;;;;;1999.90;999.90;;;;;;;7.51;100.00;96525.28;5021310;28;20236;-58
2022/11/12 08:10:06;;;;;;;1999.90;999.90;;;;;;;7.61;100.00;96544.53;5020520;28;20253;-59
2022/11/12 08:12:31;;;;;;;1999.90;999.90;;;;;;;7.68;100.00;96592.84;5020556;28;20179;-59
2022/11/12 08:14:56;;;;;;;1999.90;999.90;;;;;;;7.84;100.00;96624.28;5020276;28;20206;-59
2022/11/12 08:17:22;;;;;;;1999.90;999.90;;;;;;;7.92;100.00;96658.66;5020777;28;20185;-62
2022/11/12 08:19:47;;;;;;;1999.90;999.90;;;;;;;8.02;100.00;96670.91;5020458;28;20272;-63
2022/11/12 08:22:12;;;;;;;1999.90;999.90;;;;;;;8.40;100.00;96673.69;5020639;28;20185;-62
2022/11/12 08:24:38;;;;;;;1999.90;999.90;;;;;;;8.77;100.00;96694.69;5020114;28;20265;-62
2022/11/12 08:27:03;;;;;;;1999.90;999.90;;;;;;;8.99;100.00;96726.66;5020685;28;20178;-61
2022/11/12 08:29:28;;;;;;;1999.90;999.90;;;;;;;8.90;100.00;96752.53;5019999;28;20580;-62
2022/11/12 08:31:54;;;;;;;1999.90;999.90;;;;;;;9.02;100.00;96761.34;5020030;28;20175;-62
2022/11/12 08:34:19;;;;;;;1999.90;999.90;;;;;;;9.97;100.00;96761.13;5020744;28;20268;-61
2022/11/12 08:36:44;;;;;;;1999.90;999.90;;;;;;;10.71;100.00;96786.06;5020268;28;20198;-59
2022/11/12 08:39:10;;;;;;;1999.90;999.90;;;;;;;11.32;100.00;96811.06;5020116;28;20176;-59
2022/11/12 08:41:35;;;;;;;1999.90;999.90;;;;;;;11.35;100.00;96824.78;5020153;28;20199;-59
2022/11/12 08:44:01;;;;;;;1999.90;999.90;;;;;;;11.82;100.00;96837.84;5020054;28;20174;-61
2022/11/12 08:46:26;;;;;;;1999.90;999.90;;;;;;;11.81;100.00;96841.75;5020080;28;20589;-62
2022/11/12 08:48:52;;;;;;;1999.90;999.90;;;;;;;12.28;100.00;96850.03;5019967;28;20247;-60
2022/11/12 08:51:17;;;;;;;1999.90;999.90;;;;;;;12.03;100.00;96851.75;5037409;28;20531;-62
2022/11/12 08:53:42;;;;;;;1999.90;999.90;;;;;;;11.77;100.00;96860.09;5019746;28;20201;-64
2022/11/12 08:56:08;;;;;;;1999.90;999.90;;;;;;;11.92;100.00;96850.88;5020058;28;20198;-59
2022/11/12 08:58:33;;;;;;;1999.90;999.90;;;;;;;12.65;100.00;96850.72;5020491;28;20194;-60
2022/11/12 09:01:04;;;;;;;1999.90;999.90;;;;;;;12.87;100.00;96855.19;5019517;28;20175;-60
2022/11/12 09:03:29;;;;;;;1999.90;999.90;;;;;;;13.27;100.00;96844.88;5019356;28;20167;-60
2022/11/12 09:05:55;;;;;;;1999.90;999.90;;;;;;;13.30;100.00;96854.31;5019928;28;20201;-60
2022/11/12 09:08:24;;;;;;;1999.90;999.90;;;;;;;13.43;100.00;96858.28;5020112;28;20522;-60
2022/11/12 09:10:50;;;;;;;1999.90;999.90;;;;;;;13.58;100.00;96859.91;5019594;28;20249;-61
2022/11/12 09:13:18;;;;;;;1999.90;999.90;;;;;;;13.83;100.00;96858.03;5019364;28;20216;-61
2022/11/12 09:15:45;;;;;;;1999.90;999.90;;;;;;;14.55;100.00;96861.34;5019141;28;20171;-59
2022/11/12 09:18:15;;;;;;;1999.90;999.90;;;;;;;14.39;100.00;96860.91;5019518;28;20170;-60
2022/11/12 09:20:41;;;;;;;1999.90;999.90;;;;;;;14.62;100.00;96869.59;5019457;28;20171;-60
2022/11/12 09:23:12;;;;;;;1999.90;999.90;;;;;;;14.28;100.00;96865.63;5019498;28;20178;-60
2022/11/12 09:25:39;;;;;;;1999.90;999.90;;;;;;;14.84;100.00;96875.84;5019833;28;20162;-59
2022/11/12 09:28:25;;;;;;;1999.90;999.90;;;;;;;14.34;100.00;96864.06;5019193;28;20182;-63
2022/11/12 09:30:52;;;;;;;1999.90;999.90;;;;;;;14.59;100.00;96878.63;5018665;28;20190;-63
2022/11/12 09:33:23;;;;;;;1999.90;999.90;;;;;;;14.14;100.00;96871.09;5018830;28;20253;-64
2022/11/12 09:35:49;;;;;;;1999.90;999.90;;;;;;;14.20;100.00;96875.00;5019502;28;20175;-64
2022/11/12 09:38:16;;;;;;;1999.90;999.90;;;;;;;14.14;100.00;96871.09;5018654;28;20624;-62
2022/11/12 09:40:50;;;;;;;1999.90;999.90;;;;;;;14.06;100.00;96874.97;5019626;28;20178;-62
2022/11/12 09:43:42;;;;;;;1999.90;999.90;;;;;;;14.39;100.00;96877.41;5019112;28;20182;-61
2022/11/12 09:46:33;;;;;;;1999.90;999.90;;;;;;;14.47;100.00;96872.72;5018592;28;20217;-59
2022/11/12 09:49:30;;;;;;;1999.90;999.90;;;;;;;14.45;100.00;96872.31;5018898;28;20221;-59
2022/11/12 09:52:02;;;;;;;1999.90;999.90;;;;;;;14.40;100.00;96872.72;5018956;28;20221;-66
2022/11/12 09:54:31;;;;;;;1999.90;999.90;;;;;;;14.52;100.00;96869.56;5019214;28;20220;-66
2022/11/12 09:56:56;;;;;;;1999.90;999.90;;;;;;;14.00;100.00;96882.03;5019483;28;20178;-67
2022/11/12 09:59:32;;;;;;;1999.90;999.90;;;;;;;14.43;100.00;96875.47;5018805;28;20175;-64
2022/11/12 10:02:05;;;;;;;1999.90;999.90;;;;;;;14.27;100.00;96875.03;5019158;28;20672;-65
2022/11/12 10:04:52;;;;;;;1999.90;999.90;;;;;;;13.98;100.00;96873.38;5035989;28;20194;-58
2022/11/12 10:07:55;;;;;;;1999.90;999.90;;;;;;;14.14;100.00;96871.09;5018937;28;20171;-62
2022/11/12 10:10:39;;;;;;;1999.90;999.90;;;;;;;13.72;100.00;96865.47;5014764;28;20234;-58
2022/11/12 10:13:09;;;;;;;1999.90;999.90;;;;;;;13.68;100.00;96864.66;5015109;28;20175;-60
2022/11/12 10:18:54;;;;;;;1999.90;999.90;;;;;;;13.99;100.00;96866.69;5016166;28;20217;-60
2022/11/12 10:21:28;;;;;;;1999.90;999.90;;;;;;;13.87;100.00;96856.09;5014749;28;20187;-59
2022/11/12 10:23:54;;;;;;;1999.90;999.90;;;;;;;13.19;100.00;96861.69;5015601;28;20179;-60
2022/11/12 10:26:22;;;;;;;1999.90;999.90;;;;;;;12.97;100.00;96852.50;5014748;28;20690;-60
2022/11/12 10:29:18;;;;;;;1999.90;999.90;;;;;;;13.12;100.00;96850.69;5014693;28;20198;-64
2022/11/12 10:31:43;;;;;;;1999.90;999.90;;;;;;;12.88;100.00;96845.78;5014907;28;20244;-68
2022/11/12 10:34:12;;;;;;;1999.90;999.90;;;;;;;12.93;100.00;96839.97;5014378;28;20249;-61
2022/11/12 10:36:39;;;;;;;1999.90;999.90;;;;;;;12.77;100.00;96831.22;5015158;28;20609;-61
2022/11/12 10:39:04;;;;;;;1999.90;999.90;;;;;;;12.99;100.00;96832.97;5015143;28;20207;-59
2022/11/12 10:41:34;;;;;;;1999.90;999.90;;;;;;;12.71;100.00;96832.75;5015200;28;20211;-60
2022/11/12 10:44:04;;;;;;;1999.90;999.90;;;;;;;12.22;100.00;96832.38;5014957;28;20184;-62
2022/11/12 10:46:33;;;;;;;1999.90;999.90;;;;;;;12.03;100.00;96825.19;5014445;28;20193;-60
2022/11/12 10:49:04;;;;;;;1999.90;999.90;;;;;;;11.16;100.00;96824.16;5015017;28;20211;-59
2022/11/12 10:51:33;;;;;;;1999.90;999.90;;;;;;;11.77;100.00;96827.25;5015440;28;20186;-59
2022/11/12 10:54:19;;;;;;;1999.90;999.90;;;;;;;11.79;100.00;96824.91;5014283;28;20261;-59
2022/11/12 10:56:44;;;;;;;1999.90;999.90;;;;;;;11.70;100.00;96824.44;5014301;28;20167;-59
2022/11/12 10:59:21;;;;;;;1999.90;999.90;;;;;;;11.68;100.00;96815.81;5014801;28;20233;-58
2022/11/12 11:01:58;;;;;;;1999.90;999.90;;;;;;;11.76;100.00;96814.75;5015117;28;20171;-61
2022/11/12 11:04:32;;;;;;;1999.90;999.90;;;;;;;11.90;100.00;96809.38;5014419;28;20195;-65
2022/11/12 11:07:01;;;;;;;1999.90;999.90;;;;;;;12.03;100.00;96803.28;5015143;28;20184;-65
2022/11/12 11:09:27;;;;;;;1999.90;999.90;;;;;;;12.03;100.00;96807.94;5014753;28;20237;-68
2022/11/12 11:11:53;;;;;;;1999.90;999.90;;;;;;;11.89;100.00;96805.06;5017898;28;20281;-62
2022/11/12 11:14:22;;;;;;;1999.90;999.90;;;;;;;11.86;100.00;96803.09;5017236;28;20222;-65
2022/11/12 11:16:53;;;;;;;1999.90;999.90;;;;;;;11.97;100.00;96798.50;5017374;28;20190;-63
2022/11/12 11:19:19;;;;;;;1999.90;999.90;;;;;;;11.46;100.00;96795.63;5017847;28;20195;-60
2022/11/12 11:21:57;;;;;;;1999.90;999.90;;;;;;;10.80;100.00;96797.50;5016973;28;20630;-60
2022/11/12 11:24:35;;;;;;;1999.90;999.90;;;;;;;10.86;100.00;96793.31;5017280;28;20255;-60